Observations for BRIZE NORTON RA, United Kingdom (EGVN)

EGVN 201950Z 21009KT 9999 BKN018 10/07 Q1020 NOSIG  
EGVN 201950Z 21009KT 9999 BKN018 10/07 Q1020 WHT NOSIG
EGVN 201850Z 21009KT 9999 BKN022 10/07 Q1019 NOSIG  
EGVN 201850Z 21009KT 9999 BKN022 10/07 Q1019 WHT NOSIG
EGVN 201750Z 21007KT 9999 SCT028 BKN110 10/06 Q1019 NOSIG   
EGVN 201750Z 21007KT 9999 SCT028 BKN110 10/06 Q1019 BLU NOSIG
EGVN 201650Z 21008KT 9999 FEW023 BKN035 11/06 Q1019 NOSIG   
EGVN 201650Z 21008KT 9999 FEW023 BKN035 11/06 Q1019 BLU NOSIG
EGVN 201550Z 22010KT 9999 FEW026 SCT042 BKN170 12/06 Q1019 NOSIG
EGVN 201550Z 22010KT 9999 FEW026 SCT042 BKN170 12/06 Q1019 BLU NOSIG
EGVN 201450Z 23008KT 9999 FEW026 SCT040 BKN170 12/06 Q1018 NOSIG
EGVN 201450Z 23008KT 9999 FEW026 SCT040 BKN170 12/06 Q1018 BLU NOSIG
EGVN 201350Z 22011KT 9999 FEW025 SCT038 BKN160 12/06 Q1018 NOSIG
EGVN 201350Z 22011KT 9999 FEW025 SCT038 BKN160 12/06 Q1018 BLU NOSIG
EGVN 201250Z 22008KT 9999 FEW024 BKN036 11/06 Q1019 NOSIG   
EGVN 201250Z 22008KT 9999 FEW024 BKN036 11/06 Q1019 BLU NOSIG
EGVN 201150Z 22010KT 9999 FEW022 SCT034 12/08 Q1018 BLU NOSIG   
EGVN 201150Z 22010KT 9999 FEW022 SCT034 12/08 Q1018 NOSIG
EGVN 201050Z 22011KT 9999 SCT020 12/07 Q1018 BECMG FEW022   
EGVN 201050Z 22011KT 9999 SCT020 12/07 Q1018 WHT BECMG FEW022 BLU
EGVN 200950Z 22010KT 9999 SCT018 10/07 Q1018 BECMG FEW022   
EGVN 200950Z 22010KT 9999 SCT018 10/07 Q1018 WHT BECMG FEW022 BLU
EGVN 200850Z 21011KT 9999 FEW015 SCT160 10/07 Q1017 BLU NOSIG   
EGVN 200850Z 21011KT 9999 FEW015 SCT160 10/07 Q1017 NOSIG
EGVN 200750Z 21008KT 9999 FEW014 SCT034 BKN130 09/07 Q1017 NOSIG
EGVN 200750Z 21008KT 9999 FEW014 SCT034 BKN130 09/07 Q1017 BLU NOSIG
EGVN 200650Z 21006KT 9999 SCT010 BKN026 08/07 Q1016 TEMPO FEW010
EGVN 200650Z 21006KT 9999 SCT010 BKN026 08/07 Q1016 GRN TEMPO FEW010 BLU
EGVN 200550Z 21008KT 9999 SCT012 BKN036 BKN110 08/07 Q1016 TEMPO FEW012 
EGVN 200550Z 21008KT 9999 SCT012 BKN036 BKN110 08/07 Q1016 GRN TEMPO FEW012 BLU
EGVN 200450Z 22007KT 9999 BKN013 BKN090 08/07 Q1016 TEMPO FEW013
EGVN 200450Z 22007KT 9999 BKN013 BKN090 08/07 Q1016 GRN TEMPO FEW013 BLU
EGVN 200350Z 21006KT 9999 FEW012 SCT028 BKN080 08/06 Q1016 TEMPO SCT012 
EGVN 200350Z 21006KT 9999 FEW012 SCT028 BKN080 08/06 Q1016 BLU TEMPO SCT012 GRN
EGVN 200250Z 21009KT 9999 SCT015 BKN036 BKN090 08/06 Q1016 TEMPO SCT014 
EGVN 200250Z 21009KT 9999 SCT015 BKN036 BKN090 08/06 Q1016 WHT TEMPO SCT014 GRN
EGVN 200138Z 21008KT 9999 -RA SCT016 BKN030 OVC080 08/06 Q1017 TEMPO BKN014 
EGVN 200138Z 21008KT 9999 -RA SCT016 BKN030 OVC080 08/06 Q1017 WHT TEMPO BKN014GRN
EGVN 200050Z 21007KT 9999 FEW012 SCT028 BKN080 08/06 Q1017 TEMPO SCT012 
EGVN 200050Z 21007KT 9999 FEW012 SCT028 BKN080 08/06 Q1017 BLU TEMPO SCT012 GRN
EGVN 192350Z 21008KT 9999 -RA FEW040 BKN080 08/05 Q1017 NOSIG   
EGVN 192350Z 21008KT 9999 -RA FEW040 BKN080 08/05 Q1017 BLU NOSIG
EGVN 192250Z 21007KT 9999 FEW045 BKN080 08/05 Q1017 NOSIG   
EGVN 192250Z 21007KT 9999 FEW045 BKN080 08/05 Q1017 BLU NOSIG
EGVN 192150Z 21008KT 9999 FEW045 OVC080 08/06 Q1017 NOSIG   
EGVN 192150Z 21008KT 9999 FEW045 OVC080 08/06 Q1017 BLU NOSIG
EGVN 192050Z 21009KT 9999 FEW044 BKN090 08/05 Q1017 NOSIG   
EGVN 192050Z 21009KT 9999 FEW044 BKN090 08/05 Q1017 BLU NOSIG
EGVN 191950Z 20007KT 9999 SCT044 BKN110 BKN250 08/05 Q1017 NOSIG
EGVN 191950Z 20007KT 9999 SCT044 BKN110 BKN250 08/05 Q1017 BLU NOSIG